Time;durP1;ratioP1;P1;durP2;ratioP2;P2;SDS_P1;SDS_P2;PMS_P1;PMS_P2;Temp;Humidity;BMP_temperature;BMP_pressure;BME280_temperature;BME280_humidity;BME280_pressure;Samples;Min_cycle;Max_cycle;Signal;HPM_P1;HPM_P2
2022/03/10 00:00:56;;;;;;;0.80;0.60;;;2.00;96.60;;;;;;5084319;28;20032;-83
2022/03/10 00:03:22;;;;;;;2.75;0.50;;;1.90;96.50;;;;;;5069011;28;20040;-83
2022/03/10 00:05:47;;;;;;;0.22;0.22;;;1.90;96.70;;;;;;5066881;28;20040;-83
2022/03/10 00:08:13;;;;;;;0.80;0.75;;;1.90;96.70;;;;;;5082825;28;20116;-83
2022/03/10 00:10:39;;;;;;;0.90;0.80;;;1.90;96.70;;;;;;5078967;28;20126;-83
2022/03/10 00:13:04;;;;;;;0.63;0.57;;;1.90;96.70;;;;;;5070320;28;20075;-83
2022/03/10 00:15:30;;;;;;;1.27;0.68;;;1.90;97.20;;;;;;5064450;28;20048;-83
2022/03/10 00:17:56;;;;;;;1.48;1.08;;;1.90;96.70;;;;;;5085882;28;20085;-83
2022/03/10 00:20:22;;;;;;;0.75;0.55;;;1.90;96.70;;;;;;5081214;28;20048;-83
2022/03/10 00:22:52;;;;;;;0.50;0.50;;;1.80;96.80;;;;;;5068106;28;20080;-83
2022/03/10 00:25:18;;;;;;;1.25;0.80;;;1.80;96.60;;;;;;5081565;28;20037;-83
2022/03/10 00:27:45;;;;;;;0.40;0.30;;;1.80;96.20;;;;;;5068756;28;20044;-83
2022/03/10 00:30:11;;;;;;;0.38;0.38;;;1.80;96.90;;;;;;5081170;28;20063;-83
2022/03/10 00:32:48;;;;;;;0.45;0.45;;;1.80;96.80;;;;;;5070317;28;20500;-84
2022/03/10 00:35:19;;;;;;;0.40;0.30;;;1.80;96.60;;;;;;5058973;28;20114;-83
2022/03/10 00:37:46;;;;;;;2.33;1.88;;;1.80;96.90;;;;;;5072320;28;20045;-83
2022/03/10 00:40:12;;;;;;;1.05;0.75;;;1.80;97.10;;;;;;5079105;28;20064;-83
2022/03/10 00:42:39;;;;;;;0.32;0.28;;;1.80;97.20;;;;;;5078289;28;20091;-83
2022/03/10 00:45:06;;;;;;;1.17;0.65;;;1.80;96.60;;;;;;5080679;28;20032;-83
2022/03/10 00:47:32;;;;;;;1.45;1.35;;;1.80;96.90;;;;;;5085655;28;20564;-83
2022/03/10 00:49:58;;;;;;;0.68;0.32;;;1.70;96.90;;;;;;5081041;28;20037;-83
2022/03/10 00:52:24;;;;;;;0.13;0.13;;;1.70;97.00;;;;;;5066810;28;20031;-83
2022/03/10 00:54:50;;;;;;;0.68;0.60;;;1.70;97.10;;;;;;5077476;28;20040;-83
2022/03/10 00:57:15;;;;;;;3.55;1.10;;;1.70;97.00;;;;;;5068619;28;20040;-83
2022/03/10 00:59:41;;;;;;;0.17;0.17;;;1.70;97.10;;;;;;5067605;28;20036;-83
2022/03/10 01:02:07;;;;;;;0.30;0.20;;;1.60;97.10;;;;;;5083496;28;20492;-83
2022/03/10 01:04:32;;;;;;;0.20;0.20;;;1.60;97.20;;;;;;5068924;28;20127;-83
2022/03/10 01:06:58;;;;;;;1.75;0.63;;;1.60;97.20;;;;;;5072921;28;20039;-83
2022/03/10 01:09:24;;;;;;;0.95;0.80;;;1.60;97.20;;;;;;5087880;28;20078;-83
2022/03/10 01:11:49;;;;;;;0.10;0.10;;;1.60;97.40;;;;;;5089711;28;20451;-83
2022/03/10 01:14:15;;;;;;;0.50;0.50;;;1.50;97.60;;;;;;5069736;28;20038;-83
2022/03/10 01:16:40;;;;;;;0.22;0.20;;;1.50;97.80;;;;;;5084315;28;20101;-83
2022/03/10 01:19:08;;;;;;;1.35;0.50;;;1.50;97.90;;;;;;5072514;28;20044;-83
2022/03/10 01:21:34;;;;;;;4.57;0.73;;;1.50;97.80;;;;;;5079639;28;20639;-83
2022/03/10 01:23:59;;;;;;;1.77;1.42;;;1.50;97.20;;;;;;5060898;28;20033;-83
2022/03/10 01:26:25;;;;;;;0.30;0.30;;;1.60;97.30;;;;;;5079764;28;20032;-83
2022/03/10 01:28:51;;;;;;;0.40;0.40;;;1.60;97.30;;;;;;5086855;28;20513;-83
2022/03/10 01:31:16;;;;;;;0.85;0.65;;;1.60;97.50;;;;;;5073494;28;20097;-83
2022/03/10 01:33:42;;;;;;;0.52;0.50;;;1.60;97.50;;;;;;5087492;28;20035;-83
2022/03/10 01:36:08;;;;;;;1.58;0.52;;;1.60;96.80;;;;;;5078174;28;20101;-83
2022/03/10 01:38:39;;;;;;;0.68;0.30;;;1.60;96.60;;;;;;5075419;28;20710;-83
2022/03/10 01:41:08;;;;;;;0.80;0.30;;;1.60;97.20;;;;;;5074986;28;20059;-83
2022/03/10 01:43:54;;;;;;;3.53;0.57;;;1.60;97.20;;;;;;5056395;28;20032;-83
2022/03/10 01:46:20;;;;;;;0.30;0.30;;;1.60;97.40;;;;;;5089601;28;20036;-84
2022/03/10 01:48:46;;;;;;;0.88;0.85;;;1.60;97.60;;;;;;5066188;28;20400;-83
2022/03/10 01:51:12;;;;;;;0.43;0.30;;;1.50;97.50;;;;;;5066998;28;20119;-83
2022/03/10 01:53:38;;;;;;;1.27;0.32;;;1.50;97.50;;;;;;5072803;28;20054;-83
2022/03/10 01:56:04;;;;;;;0.40;0.40;;;1.50;97.60;;;;;;5060160;28;20036;-83
2022/03/10 01:58:29;;;;;;;0.38;0.38;;;1.40;97.50;;;;;;5083414;28;20074;-83
2022/03/10 02:00:56;;;;;;;0.90;0.57;;;1.40;97.90;;;;;;5056958;28;20516;-83
2022/03/10 02:03:22;;;;;;;1.00;0.50;;;1.30;98.00;;;;;;5069581;28;20085;-83
2022/03/10 02:05:48;;;;;;;0.95;0.50;;;1.30;98.10;;;;;;5085915;28;20032;-83
2022/03/10 02:10:58;;;;;;;0.20;0.17;;;1.30;98.20;;;;;;5079046;28;20412;-83
2022/03/10 02:13:24;;;;;;;0.75;0.63;;;1.30;98.20;;;;;;5069205;28;20036;-83
2022/03/10 02:18:34;;;;;;;0.90;0.85;;;1.30;98.40;;;;;;5076410;28;20489;-83
2022/03/10 02:20:59;;;;;;;2.08;1.63;;;1.30;98.40;;;;;;5068419;28;20036;-83
2022/03/10 02:23:25;;;;;;;0.40;0.40;;;1.30;98.50;;;;;;5069963;28;20028;-83
2022/03/10 02:25:51;;;;;;;1.05;0.95;;;1.30;98.70;;;;;;5076427;28;20035;-83
2022/03/10 02:28:18;;;;;;;1.50;1.20;;;1.20;98.60;;;;;;5058576;28;20032;-83
2022/03/10 02:30:44;;;;;;;1.55;0.75;;;1.20;98.60;;;;;;5073925;28;20041;-84
2022/03/10 02:33:09;;;;;;;0.30;0.30;;;1.20;98.80;;;;;;5071190;28;20135;-83
2022/03/10 02:35:35;;;;;;;1.35;0.63;;;1.20;99.10;;;;;;5068486;28;20108;-84
2022/03/10 02:38:01;;;;;;;1.27;0.30;;;1.20;99.00;;;;;;5084540;28;20032;-84
2022/03/10 02:40:28;;;;;;;0.77;0.32;;;1.20;98.90;;;;;;5086469;28;20079;-84
2022/03/10 02:42:54;;;;;;;0.70;0.70;;;1.20;98.60;;;;;;5055985;28;20028;-83
2022/03/10 02:45:19;;;;;;;0.63;0.63;;;1.30;99.10;;;;;;5060375;28;20059;-84
2022/03/10 02:47:45;;;;;;;4.38;1.20;;;1.20;98.50;;;;;;5065947;28;20070;-83
2022/03/10 02:50:11;;;;;;;0.57;0.40;;;1.20;99.00;;;;;;5080112;28;20043;-84
2022/03/10 02:52:37;;;;;;;0.13;0.13;;;1.20;98.60;;;;;;5052229;28;20102;-84
2022/03/10 02:55:07;;;;;;;0.15;0.15;;;1.30;98.50;;;;;;5065341;28;20035;-84
2022/03/10 02:57:34;;;;;;;0.82;0.35;;;1.20;98.20;;;;;;5084430;28;20516;-83
2022/03/10 03:00:00;;;;;;;0.20;0.20;;;1.20;98.20;;;;;;5082166;28;20032;-83
2022/03/10 03:02:26;;;;;;;0.00;0.00;;;1.20;98.10;;;;;;5059027;28;20036;-84
2022/03/10 03:04:52;;;;;;;3.05;0.95;;;1.20;98.50;;;;;;5061717;28;20125;-84
2022/03/10 03:07:18;;;;;;;0.65;0.50;;;1.10;98.60;;;;;;5056745;28;20174;-84
2022/03/10 03:09:43;;;;;;;3.10;0.63;;;1.10;98.60;;;;;;5078140;28;20508;-84
2022/03/10 03:12:09;;;;;;;0.20;0.20;;;1.10;98.60;;;;;;5069298;28;20136;-84
2022/03/10 03:14:34;;;;;;;1.52;0.90;;;1.10;98.80;;;;;;5054972;28;20052;-84
2022/03/10 03:17:00;;;;;;;0.50;0.50;;;1.10;98.50;;;;;;5058142;28;20479;-84
2022/03/10 03:19:26;;;;;;;0.15;0.15;;;1.10;98.60;;;;;;5077320;28;20052;-84
2022/03/10 03:21:52;;;;;;;0.73;0.73;;;1.00;98.70;;;;;;5073968;28;20051;-84
2022/03/10 03:24:20;;;;;;;0.65;0.35;;;1.10;98.80;;;;;;5057364;28;20029;-84
2022/03/10 03:26:46;;;;;;;0.65;0.60;;;1.10;98.90;;;;;;5054602;28;20047;-84
2022/03/10 03:29:11;;;;;;;0.10;0.10;;;1.10;99.00;;;;;;5084630;28;20040;-84
2022/03/10 03:31:37;;;;;;;0.40;0.40;;;1.10;99.10;;;;;;5068929;28;20489;-84
2022/03/10 03:34:09;;;;;;;1.35;0.50;;;1.20;98.80;;;;;;5064848;28;20041;-84
2022/03/10 03:36:36;;;;;;;0.63;0.63;;;1.20;98.60;;;;;;5068214;28;20115;-84
2022/03/10 03:39:02;;;;;;;0.90;0.43;;;1.20;98.50;;;;;;5065959;28;20169;-84
2022/03/10 03:41:27;;;;;;;0.10;0.10;;;1.20;98.30;;;;;;5102363;28;20556;-84
2022/03/10 03:43:53;;;;;;;1.17;0.98;;;1.30;97.90;;;;;;5094951;28;20152;-84
2022/03/10 03:46:19;;;;;;;0.40;0.40;;;1.40;97.60;;;;;;5074556;27;20043;-84
2022/03/10 03:48:46;;;;;;;5.95;0.68;;;1.40;97.00;;;;;;5099758;28;20055;-84
2022/03/10 03:51:11;;;;;;;1.25;0.30;;;1.50;96.60;;;;;;5090021;28;20164;-84
2022/03/10 03:53:37;;;;;;;0.20;0.20;;;1.50;96.60;;;;;;5076331;28;21757;-84
2022/03/10 03:56:03;;;;;;;1.08;0.60;;;1.60;96.50;;;;;;5088343;28;20044;-84
2022/03/10 03:58:28;;;;;;;1.02;0.68;;;1.50;96.40;;;;;;5099913;28;20047;-84
2022/03/10 04:00:54;;;;;;;0.57;0.50;;;1.50;96.50;;;;;;5073078;28;20500;-84
2022/03/10 04:03:20;;;;;;;0.22;0.10;;;1.50;96.40;;;;;;5094491;28;20116;-83
2022/03/10 04:05:46;;;;;;;0.93;0.82;;;1.50;96.20;;;;;;5075271;28;20074;-83
2022/03/10 04:08:12;;;;;;;1.55;0.75;;;1.50;96.20;;;;;;5075463;28;20042;-84
2022/03/10 04:10:38;;;;;;;0.60;0.32;;;1.60;95.90;;;;;;5102185;28;20036;-84
2022/03/10 04:13:05;;;;;;;0.90;0.50;;;1.50;95.50;;;;;;5086254;28;20071;-84
2022/03/10 04:15:31;;;;;;;0.47;0.30;;;1.60;95.60;;;;;;5105965;28;20040;-84
2022/03/10 04:17:57;;;;;;;1.13;1.02;;;1.60;95.70;;;;;;5087816;28;20039;-84
2022/03/10 04:20:22;;;;;;;1.77;0.57;;;1.60;95.90;;;;;;5118802;28;20047;-84
2022/03/10 04:22:48;;;;;;;0.47;0.35;;;1.60;96.00;;;;;;5090658;28;20110;-83
2022/03/10 04:25:13;;;;;;;0.20;0.20;;;1.60;95.90;;;;;;5105956;28;20104;-84
2022/03/10 04:27:40;;;;;;;0.30;0.30;;;1.60;95.80;;;;;;5102530;28;20040;-83
2022/03/10 04:30:06;;;;;;;3.05;0.47;;;1.60;95.70;;;;;;5098276;28;20042;-84
2022/03/10 04:32:41;;;;;;;1.33;0.75;;;1.60;95.90;;;;;;5129835;27;20044;-84
2022/03/10 04:35:07;;;;;;;2.28;0.68;;;1.60;96.20;;;;;;5102678;28;20059;-84
2022/03/10 04:37:33;;;;;;;6.53;1.15;;;1.60;95.80;;;;;;5103035;28;20046;-84
2022/03/10 04:39:59;;;;;;;0.55;0.45;;;1.60;95.80;;;;;;5103067;28;20044;-84
2022/03/10 04:42:25;;;;;;;2.95;0.82;;;1.60;96.00;;;;;;5078319;28;20135;-83
2022/03/10 04:44:50;;;;;;;0.30;0.30;;;1.50;95.70;;;;;;5103117;28;20444;-84
2022/03/10 04:47:16;;;;;;;0.40;0.40;;;1.50;95.60;;;;;;5117257;27;20043;-84
2022/03/10 04:49:41;;;;;;;2.10;0.80;;;1.50;95.80;;;;;;5125306;27;20601;-83
2022/03/10 04:52:07;;;;;;;0.65;0.65;;;1.50;96.00;;;;;;5110898;28;20058;-83
2022/03/10 04:54:33;;;;;;;1.00;0.40;;;1.50;95.80;;;;;;5093562;28;20044;-83
2022/03/10 04:56:58;;;;;;;5.47;1.10;;;1.50;95.90;;;;;;5106410;27;20047;-83
2022/03/10 04:59:25;;;;;;;0.47;0.47;;;1.50;95.80;;;;;;5127811;27;20492;-83
2022/03/10 05:01:50;;;;;;;1.05;0.43;;;1.40;96.00;;;;;;5126212;27;20039;-84
2022/03/10 05:04:16;;;;;;;2.67;1.17;;;1.40;96.00;;;;;;5092238;28;20032;-84
2022/03/10 05:06:41;;;;;;;2.25;0.47;;;1.30;96.30;;;;;;5094346;28;20038;-84
2022/03/10 05:09:07;;;;;;;2.03;1.42;;;1.30;96.50;;;;;;5107377;27;20043;-84
2022/03/10 05:11:33;;;;;;;1.02;0.95;;;1.30;96.70;;;;;;5136885;27;20032;-84
2022/03/10 05:13:58;;;;;;;1.17;1.13;;;1.20;96.80;;;;;;5091760;28;20667;-84
2022/03/10 05:16:24;;;;;;;0.82;0.60;;;1.20;97.20;;;;;;5145177;27;20044;-83
2022/03/10 05:18:49;;;;;;;0.40;0.40;;;1.30;97.20;;;;;;5141633;27;20059;-83
2022/03/10 05:21:15;;;;;;;0.40;0.40;;;1.30;97.20;;;;;;5117523;27;20043;-83
2022/03/10 05:23:40;;;;;;;2.72;0.93;;;1.40;96.90;;;;;;5117000;27;20040;-83
2022/03/10 05:26:06;;;;;;;1.67;0.77;;;1.40;96.90;;;;;;5087904;27;20036;-83
2022/03/10 05:28:32;;;;;;;0.95;0.65;;;1.40;96.90;;;;;;5105687;28;20114;-83
2022/03/10 05:30:57;;;;;;;1.52;0.47;;;1.50;96.80;;;;;;5107273;27;20058;-84
2022/03/10 05:33:23;;;;;;;1.17;0.88;;;1.40;96.20;;;;;;5113980;27;20508;-83
2022/03/10 05:35:48;;;;;;;0.98;0.85;;;1.40;96.30;;;;;;5141197;27;20092;-84
2022/03/10 05:38:14;;;;;;;1.67;0.82;;;1.40;95.80;;;;;;5134560;27;20422;-83
2022/03/10 05:40:40;;;;;;;1.80;0.93;;;1.30;96.00;;;;;;5076735;28;20056;-83
2022/03/10 05:43:06;;;;;;;0.30;0.30;;;1.30;96.10;;;;;;5069432;28;20054;-84
2022/03/10 05:45:31;;;;;;;3.83;0.68;;;1.30;96.60;;;;;;5059535;28;20094;-83
2022/03/10 05:47:57;;;;;;;0.80;0.60;;;1.30;96.40;;;;;;5083019;28;20039;-83
2022/03/10 05:50:25;;;;;;;1.00;0.80;;;1.20;96.60;;;;;;5088934;28;20063;-84
2022/03/10 05:52:51;;;;;;;0.22;0.22;;;1.20;97.00;;;;;;5062778;28;20100;-83
2022/03/10 05:55:17;;;;;;;1.33;1.23;;;1.20;97.30;;;;;;5066580;28;20625;-83
2022/03/10 05:57:43;;;;;;;0.40;0.40;;;1.20;97.40;;;;;;5088793;28;20032;-84
2022/03/10 06:00:10;;;;;;;4.85;1.27;;;1.20;97.20;;;;;;5083957;28;20033;-83
2022/03/10 06:02:37;;;;;;;3.28;1.08;;;1.20;97.30;;;;;;5065077;28;20028;-84
2022/03/10 06:05:03;;;;;;;1.00;0.90;;;1.20;97.40;;;;;;5084764;28;20036;-83
2022/03/10 06:07:30;;;;;;;0.22;0.20;;;1.20;97.40;;;;;;5069030;28;20635;-85
2022/03/10 06:09:56;;;;;;;1.42;1.10;;;1.20;97.40;;;;;;5084633;28;20119;-84
2022/03/10 06:12:27;;;;;;;0.30;0.30;;;1.20;97.30;;;;;;5068403;28;20465;-83
2022/03/10 06:15:01;;;;;;;0.20;0.20;;;1.20;97.40;;;;;;5063163;28;20460;-83
2022/03/10 06:17:29;;;;;;;0.73;0.73;;;1.20;97.30;;;;;;5081350;28;20060;-84
2022/03/10 06:19:55;;;;;;;0.28;0.28;;;1.20;96.90;;;;;;5085263;28;20033;-84
2022/03/10 06:22:22;;;;;;;1.30;0.80;;;1.20;96.60;;;;;;5068712;28;20043;-82
2022/03/10 06:24:48;;;;;;;0.22;0.22;;;1.20;96.90;;;;;;5068559;28;20031;-83
2022/03/10 06:27:15;;;;;;;0.50;0.50;;;1.20;96.80;;;;;;5101391;28;20028;-83
2022/03/10 06:29:42;;;;;;;0.40;0.30;;;1.20;97.10;;;;;;5086207;28;20118;-86
2022/03/10 06:32:08;;;;;;;0.50;0.40;;;1.20;97.10;;;;;;5064654;28;20169;-83
2022/03/10 06:34:34;;;;;;;0.70;0.50;;;1.20;97.20;;;;;;5088877;28;20032;-83
2022/03/10 06:37:00;;;;;;;0.20;0.20;;;1.20;97.00;;;;;;5078484;28;20442;-83
2022/03/10 06:39:26;;;;;;;0.52;0.22;;;1.20;97.20;;;;;;5081381;27;20139;-83
2022/03/10 06:41:51;;;;;;;3.85;1.35;;;1.20;97.20;;;;;;5094890;27;20051;-83
2022/03/10 06:44:17;;;;;;;2.03;0.60;;;1.30;97.70;;;;;;5123451;27;20033;-83
2022/03/10 06:46:43;;;;;;;0.80;0.70;;;1.20;97.70;;;;;;5105139;27;20404;-83
2022/03/10 06:49:09;;;;;;;2.78;0.60;;;1.20;98.20;;;;;;5082001;27;20397;-82
2022/03/10 06:51:35;;;;;;;0.57;0.50;;;1.30;98.40;;;;;;5091126;27;20054;-83
2022/03/10 06:54:00;;;;;;;0.22;0.22;;;1.20;98.40;;;;;;5144269;27;20431;-83
2022/03/10 06:56:26;;;;;;;0.52;0.45;;;1.30;98.70;;;;;;5091390;27;20504;-83
2022/03/10 06:58:51;;;;;;;0.30;0.30;;;1.30;99.00;;;;;;5145065;27;20046;-84
2022/03/10 07:01:18;;;;;;;3.28;0.90;;;1.40;98.90;;;;;;5119917;27;20096;-83
2022/03/10 07:03:43;;;;;;;0.30;0.30;;;1.40;99.10;;;;;;5120022;27;20586;-83
2022/03/10 07:06:09;;;;;;;0.98;0.30;;;1.40;99.30;;;;;;5094606;27;20027;-83
2022/03/10 07:08:34;;;;;;;1.60;1.45;;;1.40;99.10;;;;;;5126150;27;20074;-77
2022/03/10 07:11:00;;;;;;;0.80;0.20;;;1.50;99.20;;;;;;5123204;27;20027;-84
2022/03/10 07:13:26;;;;;;;0.30;0.30;;;1.50;99.00;;;;;;5126541;27;20045;-85
2022/03/10 07:15:51;;;;;;;0.50;0.35;;;1.60;98.90;;;;;;5128511;27;20066;-84
2022/03/10 07:18:17;;;;;;;1.75;1.17;;;1.60;98.70;;;;;;5090775;27;20436;-83
2022/03/10 07:20:42;;;;;;;1.42;1.20;;;1.70;98.10;;;;;;5082457;27;20168;-84
2022/03/10 07:23:08;;;;;;;0.55;0.55;;;1.70;97.90;;;;;;5109918;27;20102;-84
2022/03/10 07:25:34;;;;;;;4.10;0.40;;;1.80;98.10;;;;;;5109015;27;20031;-82
2022/03/10 07:28:00;;;;;;;1.35;0.80;;;1.80;98.10;;;;;;5089861;28;20441;-82
2022/03/10 07:30:25;;;;;;;0.88;0.55;;;1.90;97.60;;;;;;5108003;27;20440;-82
2022/03/10 07:32:51;;;;;;;3.80;0.40;;;1.90;97.50;;;;;;5089192;27;20047;-83
2022/03/10 07:35:17;;;;;;;0.20;0.13;;;2.00;97.20;;;;;;5111400;27;20616;-83
2022/03/10 07:37:43;;;;;;;1.25;0.55;;;2.00;97.10;;;;;;5098296;27;20039;-83
2022/03/10 07:40:09;;;;;;;0.57;0.47;;;2.10;97.20;;;;;;5121035;27;20412;-85
2022/03/10 07:42:35;;;;;;;1.13;0.45;;;2.10;96.70;;;;;;5087761;27;20169;-84
2022/03/10 07:45:01;;;;;;;0.75;0.47;;;2.20;96.60;;;;;;5117059;27;20099;-85
2022/03/10 07:47:27;;;;;;;0.82;0.70;;;2.30;96.30;;;;;;5126622;27;20058;-85
2022/03/10 07:49:52;;;;;;;0.30;0.30;;;2.30;96.00;;;;;;5125769;27;20032;-85
2022/03/10 07:52:18;;;;;;;1.60;1.08;;;2.40;95.80;;;;;;5144624;27;20113;-86
2022/03/10 07:54:43;;;;;;;1.10;0.95;;;2.40;95.90;;;;;;5096321;27;20049;-83
2022/03/10 07:57:09;;;;;;;1.70;0.80;;;2.50;96.00;;;;;;5138919;27;20032;-84
2022/03/10 07:59:35;;;;;;;1.00;0.90;;;2.50;95.80;;;;;;5116179;27;20066;-85
2022/03/10 08:02:01;;;;;;;0.20;0.20;;;2.50;95.80;;;;;;5083798;27;20042;-85
2022/03/10 08:04:26;;;;;;;0.70;0.70;;;2.60;95.80;;;;;;5096547;27;20076;-86
2022/03/10 08:06:52;;;;;;;0.20;0.20;;;2.60;95.80;;;;;;5108049;27;20039;-84
2022/03/10 08:09:18;;;;;;;0.93;0.40;;;2.70;95.90;;;;;;5126104;28;20159;-85
2022/03/10 08:11:43;;;;;;;0.32;0.30;;;2.70;95.70;;;;;;5140769;27;20035;-85
2022/03/10 08:14:09;;;;;;;0.10;0.10;;;2.80;95.70;;;;;;5110370;27;20039;-84
2022/03/10 08:16:35;;;;;;;1.35;0.93;;;2.90;95.60;;;;;;5146473;27;20050;-84
2022/03/10 08:19:00;;;;;;;0.40;0.40;;;2.90;95.70;;;;;;5108727;27;20038;-86
2022/03/10 08:21:26;;;;;;;2.60;0.68;;;3.00;95.70;;;;;;5093111;28;20039;-86
2022/03/10 08:23:53;;;;;;;2.22;0.40;;;3.10;95.70;;;;;;5107240;27;20092;-85
2022/03/10 08:26:19;;;;;;;1.17;1.08;;;3.10;95.50;;;;;;5103977;27;20089;-87
2022/03/10 08:28:50;;;;;;;0.77;0.30;;;3.30;95.30;;;;;;5105707;27;20066;-84
2022/03/10 08:31:17;;;;;;;1.58;1.23;;;3.30;95.00;;;;;;5129194;27;20067;-84
2022/03/10 08:33:42;;;;;;;2.28;1.02;;;3.40;94.80;;;;;;5103709;27;20047;-83
2022/03/10 08:36:08;;;;;;;0.95;0.63;;;3.50;94.50;;;;;;5137800;27;20129;-83
2022/03/10 08:38:35;;;;;;;0.20;0.20;;;3.60;94.20;;;;;;5111593;27;20043;-84
2022/03/10 08:41:01;;;;;;;0.70;0.45;;;3.70;94.00;;;;;;5117029;27;20044;-85
2022/03/10 08:43:29;;;;;;;2.00;1.25;;;3.80;94.00;;;;;;5132313;27;20119;-87
2022/03/10 08:46:01;;;;;;;2.08;0.45;;;3.80;93.60;;;;;;5122772;27;20399;-87
2022/03/10 08:48:27;;;;;;;0.32;0.32;;;3.90;93.40;;;;;;5110033;27;20035;-87
2022/03/10 08:50:53;;;;;;;3.33;2.28;;;3.90;93.40;;;;;;5112665;27;20326;-87
2022/03/10 08:53:18;;;;;;;1.75;0.77;;;4.00;93.20;;;;;;5122219;27;20384;-86
2022/03/10 08:55:44;;;;;;;2.20;0.73;;;4.10;92.90;;;;;;5108104;27;20507;-86
2022/03/10 08:58:10;;;;;;;1.05;0.57;;;4.20;92.80;;;;;;5107118;27;20031;-87
2022/03/10 09:00:35;;;;;;;0.20;0.20;;;4.20;92.80;;;;;;5093031;27;20038;-86
2022/03/10 09:03:01;;;;;;;1.55;1.00;;;4.30;92.50;;;;;;5145377;27;20549;-86
2022/03/10 09:05:27;;;;;;;1.13;1.05;;;4.30;92.30;;;;;;5081018;27;20127;-86
2022/03/10 09:07:53;;;;;;;0.82;0.55;;;4.40;92.20;;;;;;5147595;27;20122;-86
2022/03/10 09:10:19;;;;;;;2.15;0.65;;;4.50;92.10;;;;;;5128734;27;20046;-85
2022/03/10 09:12:44;;;;;;;2.20;1.27;;;4.60;91.80;;;;;;5114690;27;20042;-86
2022/03/10 09:15:10;;;;;;;0.85;0.50;;;4.60;91.80;;;;;;5129925;27;20043;-86
2022/03/10 09:17:37;;;;;;;1.45;0.73;;;4.70;91.80;;;;;;5105103;27;20039;-83
2022/03/10 09:20:05;;;;;;;4.15;1.88;;;4.80;91.80;;;;;;5104012;27;20039;-83
2022/03/10 09:22:31;;;;;;;1.08;0.63;;;4.80;91.80;;;;;;5093597;27;20472;-80
2022/03/10 09:24:57;;;;;;;2.60;1.15;;;4.90;91.70;;;;;;5108520;27;20394;-84
2022/03/10 09:27:22;;;;;;;1.02;0.60;;;5.00;91.50;;;;;;5113003;27;20046;-82
2022/03/10 09:29:48;;;;;;;0.80;0.75;;;5.00;91.30;;;;;;5107972;27;20110;-82
2022/03/10 09:32:14;;;;;;;2.42;0.80;;;5.10;91.00;;;;;;5093871;27;20045;-83
2022/03/10 09:34:40;;;;;;;1.10;0.80;;;5.20;91.00;;;;;;5108425;27;20035;-82
2022/03/10 09:37:06;;;;;;;1.33;0.65;;;5.20;90.70;;;;;;5096349;27;20161;-85
2022/03/10 09:39:32;;;;;;;0.73;0.47;;;5.30;90.90;;;;;;5089830;27;20070;-81
2022/03/10 09:42:03;;;;;;;1.15;0.32;;;5.30;90.70;;;;;;5111966;27;20035;-82
2022/03/10 09:44:30;;;;;;;2.33;1.33;;;5.40;90.60;;;;;;5107982;27;20504;-83
2022/03/10 09:47:02;;;;;;;1.85;0.68;;;5.50;90.10;;;;;;5109020;27;20027;-83
2022/03/10 09:49:28;;;;;;;1.77;0.85;;;5.60;90.10;;;;;;5125193;27;20063;-83
2022/03/10 09:51:54;;;;;;;1.42;0.65;;;5.70;90.00;;;;;;5124704;27;20488;-84
2022/03/10 09:54:21;;;;;;;3.60;0.80;;;5.80;89.00;;;;;;5104642;27;20042;-82
2022/03/10 09:56:47;;;;;;;0.77;0.77;;;5.80;88.70;;;;;;5105530;27;20046;-83
2022/03/10 09:59:13;;;;;;;1.17;0.57;;;5.90;88.40;;;;;;5127039;27;20047;-84
2022/03/10 10:01:39;;;;;;;2.03;1.05;;;6.00;87.80;;;;;;5142916;27;20035;-84
2022/03/10 10:04:06;;;;;;;2.13;1.00;;;6.00;87.60;;;;;;5145156;27;20092;-87
2022/03/10 10:06:51;;;;;;;2.00;0.82;;;6.10;87.60;;;;;;5105392;27;20040;-87
2022/03/10 10:09:20;;;;;;;1.77;0.55;;;6.10;87.10;;;;;;5124659;27;20035;-86
2022/03/10 10:11:46;;;;;;;1.13;0.70;;;6.20;87.50;;;;;;5121890;27;20681;-86
2022/03/10 10:14:11;;;;;;;2.20;0.77;;;6.30;87.20;;;;;;5107012;27;20127;-86
2022/03/10 10:16:47;;;;;;;3.13;0.93;;;6.30;86.60;;;;;;5122856;27;20075;-86
2022/03/10 10:19:17;;;;;;;1.88;0.82;;;6.40;85.40;;;;;;5126440;27;20081;-87
2022/03/10 10:21:42;;;;;;;1.88;0.43;;;6.50;84.80;;;;;;5104535;27;20090;-86
2022/03/10 10:24:16;;;;;;;4.03;0.90;;;6.60;85.20;;;;;;5102313;27;20055;-86
2022/03/10 10:26:42;;;;;;;4.18;1.13;;;6.60;83.90;;;;;;5135024;27;20035;-86
2022/03/10 10:29:07;;;;;;;1.52;0.80;;;6.70;84.30;;;;;;5100813;27;20081;-85
2022/03/10 10:31:36;;;;;;;1.65;0.70;;;6.70;83.80;;;;;;5123082;27;20042;-85
2022/03/10 10:34:08;;;;;;;2.40;0.50;;;6.80;83.90;;;;;;5104545;27;20096;-86
2022/03/10 10:36:36;;;;;;;2.47;0.95;;;6.80;83.20;;;;;;5108979;27;20092;-85
2022/03/10 10:39:17;;;;;;;0.95;0.80;;;6.80;80.90;;;;;;5085423;27;20035;-85
2022/03/10 10:41:45;;;;;;;1.15;0.60;;;6.90;80.50;;;;;;5099212;27;20054;-85
2022/03/10 10:44:16;;;;;;;1.13;0.77;;;7.00;82.40;;;;;;5101351;27;20043;-85
2022/03/10 10:46:46;;;;;;;3.15;0.88;;;7.00;82.10;;;;;;5097180;27;20432;-86
2022/03/10 10:49:19;;;;;;;3.92;1.00;;;7.10;80.10;;;;;;5101004;27;20314;-85
2022/03/10 10:51:50;;;;;;;1.48;1.08;;;7.20;79.80;;;;;;5108185;27;20491;-86
2022/03/10 10:54:24;;;;;;;5.72;1.40;;;7.20;79.20;;;;;;5103828;27;20130;-86
2022/03/10 10:56:56;;;;;;;1.65;0.68;;;7.30;79.50;;;;;;5105237;27;20031;-87
2022/03/10 10:59:32;;;;;;;4.50;1.30;;;7.40;79.60;;;;;;5109210;27;20172;-86
2022/03/10 11:02:21;;;;;;;4.03;0.98;;;7.50;77.90;;;;;;5108822;27;20032;-86
2022/03/10 11:04:47;;;;;;;3.10;1.05;;;7.50;77.50;;;;;;5087688;28;20096;-86
2022/03/10 11:07:13;;;;;;;1.35;1.10;;;7.60;77.10;;;;;;5098519;28;20557;-85
2022/03/10 11:09:41;;;;;;;5.70;1.15;;;7.60;77.10;;;;;;5119851;27;20044;-87
2022/03/10 11:12:13;;;;;;;4.35;1.02;;;7.70;77.50;;;;;;5106280;27;20035;-87
2022/03/10 11:14:39;;;;;;;1.65;0.60;;;7.70;77.80;;;;;;5123120;27;20039;-86
2022/03/10 11:17:05;;;;;;;1.90;0.50;;;7.80;77.20;;;;;;5087630;27;20096;-85
2022/03/10 11:19:35;;;;;;;5.35;1.23;;;7.80;76.30;;;;;;5099995;27;20391;-87
2022/03/10 11:22:22;;;;;;;1.20;0.82;;;8.00;76.80;;;;;;5123776;27;20035;-87
2022/03/10 11:25:33;;;;;;;2.70;1.42;;;8.00;74.60;;;;;;5108620;27;20035;-86
2022/03/10 11:28:11;;;;;;;0.85;0.63;;;8.10;75.10;;;;;;5113921;27;20035;-85
2022/03/10 11:30:38;;;;;;;2.65;1.30;;;8.20;75.30;;;;;;5095198;27;20043;-86
2022/03/10 11:33:16;;;;;;;4.15;1.23;;;8.20;74.90;;;;;;5105383;27;20792;-87
2022/03/10 11:35:48;;;;;;;2.17;1.42;;;8.20;75.30;;;;;;5136218;27;20047;-86
2022/03/10 11:38:15;;;;;;;1.85;0.85;;;8.30;74.10;;;;;;5134751;27;20035;-86
2022/03/10 11:40:56;;;;;;;6.97;1.33;;;8.40;73.70;;;;;;5103759;27;20043;-86
2022/03/10 11:43:29;;;;;;;1.80;1.20;;;8.40;74.40;;;;;;5101840;27;20039;-87
2022/03/10 11:46:15;;;;;;;3.45;1.45;;;8.40;73.20;;;;;;5115133;27;20035;-86
2022/03/10 11:48:42;;;;;;;1.00;0.65;;;8.50;72.00;;;;;;5137654;27;20061;-86
2022/03/10 11:51:09;;;;;;;1.85;0.70;;;8.50;73.40;;;;;;5116574;27;20412;-86
2022/03/10 11:53:55;;;;;;;2.15;0.98;;;8.60;73.80;;;;;;5132492;27;20491;-86
2022/03/10 11:56:33;;;;;;;3.83;1.40;;;8.60;72.90;;;;;;5132108;27;20342;-86
2022/03/10 11:59:17;;;;;;;3.97;1.20;;;8.60;73.80;;;;;;5137330;27;20070;-86
2022/03/10 12:01:43;;;;;;;3.50;0.70;;;8.70;72.80;;;;;;5139046;27;20043;-86
2022/03/10 12:04:17;;;;;;;2.53;1.33;;;8.70;73.80;;;;;;5088632;27;20035;-86
2022/03/10 12:07:04;;;;;;;5.53;2.15;;;8.80;73.80;;;;;;5104639;27;20043;-86
2022/03/10 12:09:36;;;;;;;1.38;0.60;;;8.90;72.70;;;;;;5094300;27;20031;-86
2022/03/10 12:12:16;;;;;;;1.58;1.05;;;8.90;74.00;;;;;;5140113;27;20031;-86
2022/03/10 12:14:42;;;;;;;1.92;1.17;;;8.90;71.40;;;;;;5130979;27;20352;-85
2022/03/10 12:17:42;;;;;;;2.15;1.13;;;8.90;72.60;;;;;;5116932;27;20032;-86
2022/03/10 12:20:25;;;;;;;1.73;0.50;;;8.90;71.90;;;;;;5102326;27;20096;-86
2022/03/10 12:23:03;;;;;;;3.08;0.82;;;9.00;71.60;;;;;;5105293;27;20436;-85
2022/03/10 12:25:29;;;;;;;1.85;0.98;;;9.00;71.40;;;;;;5134813;27;20039;-86
2022/03/10 12:27:57;;;;;;;3.50;0.75;;;9.10;72.50;;;;;;5102737;27;20067;-85
2022/03/10 12:30:28;;;;;;;3.20;1.30;;;9.10;72.60;;;;;;5102141;27;20546;-85
2022/03/10 12:32:55;;;;;;;1.80;1.17;;;9.10;72.50;;;;;;5124378;27;20091;-86
2022/03/10 12:35:27;;;;;;;1.65;0.65;;;9.10;72.20;;;;;;5121427;27;20339;-86
2022/03/10 12:37:53;;;;;;;3.05;0.77;;;9.20;71.90;;;;;;5099845;27;20067;-86
2022/03/10 12:40:24;;;;;;;4.72;0.80;;;9.20;71.00;;;;;;5116420;27;20067;-86
2022/03/10 12:42:52;;;;;;;1.38;0.70;;;9.30;71.80;;;;;;5101069;27;20035;-86
2022/03/10 12:45:21;;;;;;;0.98;0.47;;;9.30;72.30;;;;;;5084683;27;20035;-86
2022/03/10 12:48:21;;;;;;;3.47;1.27;;;9.30;72.20;;;;;;5105477;27;20078;-85
2022/03/10 12:50:47;;;;;;;1.27;0.90;;;9.40;71.70;;;;;;5126096;27;20043;-86
2022/03/10 12:53:14;;;;;;;1.90;0.57;;;9.40;72.00;;;;;;5088854;27;20038;-85
2022/03/10 12:55:40;;;;;;;1.50;0.75;;;9.50;71.10;;;;;;5102989;27;20039;-86
2022/03/10 12:58:06;;;;;;;4.00;1.23;;;9.50;71.60;;;;;;5090344;27;20092;-85
2022/03/10 13:00:39;;;;;;;1.00;0.75;;;9.50;72.10;;;;;;5113721;27;20031;-86
2022/03/10 13:03:05;;;;;;;1.40;0.75;;;9.60;72.40;;;;;;5143059;27;20054;-86
2022/03/10 13:05:32;;;;;;;1.00;0.60;;;9.60;71.20;;;;;;5130213;27;20392;-86